sensor_id;sensor_type;location;lat;lon;timestamp;temperature;humidity
52044;DHT22;38053;53.100;6.078;2022-11-24T00:00:49;6.70;99.90
52044;DHT22;38053;53.100;6.078;2022-11-24T00:03:15;6.60;99.90
52044;DHT22;38053;53.100;6.078;2022-11-24T00:05:41;6.60;99.90
52044;DHT22;38053;53.100;6.078;2022-11-24T00:08:07;6.60;99.90
52044;DHT22;38053;53.100;6.078;2022-11-24T00:10:32;6.60;99.90
52044;DHT22;38053;53.100;6.078;2022-11-24T00:12:58;6.60;99.90
52044;DHT22;38053;53.100;6.078;2022-11-24T00:15:24;6.60;99.90
52044;DHT22;38053;53.100;6.078;2022-11-24T00:17:50;6.60;99.90
52044;DHT22;38053;53.100;6.078;2022-11-24T00:20:15;6.60;99.90
52044;DHT22;38053;53.100;6.078;2022-11-24T00:22:41;6.60;99.90
52044;DHT22;38053;53.100;6.078;2022-11-24T00:25:07;6.60;99.90
52044;DHT22;38053;53.100;6.078;2022-11-24T00:27:33;6.50;99.90
52044;DHT22;38053;53.100;6.078;2022-11-24T00:29:58;6.50;99.90
52044;DHT22;38053;53.100;6.078;2022-11-24T00:32:28;6.50;99.90
52044;DHT22;38053;53.100;6.078;2022-11-24T00:34:54;6.50;99.90
52044;DHT22;38053;53.100;6.078;2022-11-24T00:37:19;6.50;99.90
52044;DHT22;38053;53.100;6.078;2022-11-24T00:39:45;6.50;99.90
52044;DHT22;38053;53.100;6.078;2022-11-24T00:42:11;6.50;99.90
52044;DHT22;38053;53.100;6.078;2022-11-24T00:44:38;6.50;99.90
52044;DHT22;38053;53.100;6.078;2022-11-24T00:47:04;6.50;99.90
52044;DHT22;38053;53.100;6.078;2022-11-24T00:49:30;6.50;99.90
52044;DHT22;38053;53.100;6.078;2022-11-24T00:51:56;6.50;99.90
52044;DHT22;38053;53.100;6.078;2022-11-24T00:54:22;6.50;99.90
52044;DHT22;38053;53.100;6.078;2022-11-24T00:56:47;6.50;99.90
52044;DHT22;38053;53.100;6.078;2022-11-24T00:59:13;6.50;99.90
52044;DHT22;38053;53.100;6.078;2022-11-24T01:01:39;6.50;99.90
52044;DHT22;38053;53.100;6.078;2022-11-24T01:04:06;6.50;99.90
52044;DHT22;38053;53.100;6.078;2022-11-24T01:06:32;6.50;99.90
52044;DHT22;38053;53.100;6.078;2022-11-24T01:08:59;6.60;99.90
52044;DHT22;38053;53.100;6.078;2022-11-24T01:11:31;6.60;99.90
52044;DHT22;38053;53.100;6.078;2022-11-24T01:14:15;6.70;99.90
52044;DHT22;38053;53.100;6.078;2022-11-24T01:16:41;6.70;99.90
52044;DHT22;38053;53.100;6.078;2022-11-24T01:19:07;6.80;99.90
52044;DHT22;38053;53.100;6.078;2022-11-24T01:21:32;6.80;99.90
52044;DHT22;38053;53.100;6.078;2022-11-24T01:23:58;6.80;99.90
52044;DHT22;38053;53.100;6.078;2022-11-24T01:26:24;6.90;99.90
52044;DHT22;38053;53.100;6.078;2022-11-24T01:28:54;6.90;99.90
52044;DHT22;38053;53.100;6.078;2022-11-24T01:31:20;6.90;99.90
52044;DHT22;38053;53.100;6.078;2022-11-24T01:33:46;6.90;99.90
52044;DHT22;38053;53.100;6.078;2022-11-24T01:36:12;6.80;99.90
52044;DHT22;38053;53.100;6.078;2022-11-24T01:38:37;6.80;99.90
52044;DHT22;38053;53.100;6.078;2022-11-24T01:41:06;6.80;99.90
52044;DHT22;38053;53.100;6.078;2022-11-24T01:43:32;6.90;99.90
52044;DHT22;38053;53.100;6.078;2022-11-24T01:46:25;6.90;99.90
52044;DHT22;38053;53.100;6.078;2022-11-24T01:49:31;6.90;99.90
52044;DHT22;38053;53.100;6.078;2022-11-24T01:52:00;6.90;99.90
52044;DHT22;38053;53.100;6.078;2022-11-24T01:54:41;6.90;99.90
52044;DHT22;38053;53.100;6.078;2022-11-24T01:57:29;6.90;99.90
52044;DHT22;38053;53.100;6.078;2022-11-24T02:00:04;6.90;99.90
52044;DHT22;38053;53.100;6.078;2022-11-24T02:02:31;6.90;99.90
52044;DHT22;38053;53.100;6.078;2022-11-24T02:04:59;6.90;99.90
52044;DHT22;38053;53.100;6.078;2022-11-24T02:07:26;6.90;99.90
52044;DHT22;38053;53.100;6.078;2022-11-24T02:09:55;6.90;99.90
52044;DHT22;38053;53.100;6.078;2022-11-24T02:12:24;7.00;99.90
52044;DHT22;38053;53.100;6.078;2022-11-24T02:14:52;7.00;99.90
52044;DHT22;38053;53.100;6.078;2022-11-24T02:17:18;7.00;99.90
52044;DHT22;38053;53.100;6.078;2022-11-24T02:19:53;6.90;99.90
52044;DHT22;38053;53.100;6.078;2022-11-24T02:27:51;6.80;99.90
52044;DHT22;38053;53.100;6.078;2022-11-24T02:30:17;6.80;99.90
52044;DHT22;38053;53.100;6.078;2022-11-24T02:32:43;6.80;99.90
52044;DHT22;38053;53.100;6.078;2022-11-24T02:35:10;6.80;99.90
52044;DHT22;38053;53.100;6.078;2022-11-24T02:37:36;6.80;99.90
52044;DHT22;38053;53.100;6.078;2022-11-24T02:40:02;6.80;99.90
52044;DHT22;38053;53.100;6.078;2022-11-24T02:42:32;6.80;99.90
52044;DHT22;38053;53.100;6.078;2022-11-24T02:44:59;6.80;99.90
52044;DHT22;38053;53.100;6.078;2022-11-24T02:47:26;6.80;99.90
52044;DHT22;38053;53.100;6.078;2022-11-24T02:49:52;6.80;99.90
52044;DHT22;38053;53.100;6.078;2022-11-24T02:52:18;6.80;99.90
52044;DHT22;38053;53.100;6.078;2022-11-24T02:54:43;6.80;99.90
52044;DHT22;38053;53.100;6.078;2022-11-24T02:57:09;6.80;99.90
52044;DHT22;38053;53.100;6.078;2022-11-24T02:59:36;6.80;99.90
52044;DHT22;38053;53.100;6.078;2022-11-24T03:02:02;6.80;99.90
52044;DHT22;38053;53.100;6.078;2022-11-24T03:04:28;6.80;99.90
52044;DHT22;38053;53.100;6.078;2022-11-24T03:06:53;6.80;99.90
52044;DHT22;38053;53.100;6.078;2022-11-24T03:09:19;6.80;99.90
52044;DHT22;38053;53.100;6.078;2022-11-24T03:11:45;6.80;99.90
52044;DHT22;38053;53.100;6.078;2022-11-24T03:14:11;6.80;99.90
52044;DHT22;38053;53.100;6.078;2022-11-24T03:16:37;6.80;99.90
52044;DHT22;38053;53.100;6.078;2022-11-24T03:19:03;6.80;99.90
52044;DHT22;38053;53.100;6.078;2022-11-24T03:21:29;6.80;99.90
52044;DHT22;38053;53.100;6.078;2022-11-24T03:23:55;6.80;99.90
52044;DHT22;38053;53.100;6.078;2022-11-24T03:26:22;6.80;99.90
52044;DHT22;38053;53.100;6.078;2022-11-24T03:28:48;6.80;99.90
52044;DHT22;38053;53.100;6.078;2022-11-24T03:31:17;6.80;99.90
52044;DHT22;38053;53.100;6.078;2022-11-24T03:33:42;6.80;99.90
52044;DHT22;38053;53.100;6.078;2022-11-24T03:36:08;6.80;99.90
52044;DHT22;38053;53.100;6.078;2022-11-24T03:38:34;6.80;99.90
52044;DHT22;38053;53.100;6.078;2022-11-24T03:41:00;6.80;99.90
52044;DHT22;38053;53.100;6.078;2022-11-24T03:43:26;6.80;99.90
52044;DHT22;38053;53.100;6.078;2022-11-24T03:45:51;6.80;99.90
52044;DHT22;38053;53.100;6.078;2022-11-24T03:48:18;6.80;99.90
52044;DHT22;38053;53.100;6.078;2022-11-24T03:50:57;6.70;99.90
52044;DHT22;38053;53.100;6.078;2022-11-24T03:53:25;6.70;99.90
52044;DHT22;38053;53.100;6.078;2022-11-24T03:55:54;6.70;99.90
52044;DHT22;38053;53.100;6.078;2022-11-24T03:58:21;6.70;99.90
52044;DHT22;38053;53.100;6.078;2022-11-24T04:00:48;6.60;99.90
52044;DHT22;38053;53.100;6.078;2022-11-24T04:03:14;6.60;99.90
52044;DHT22;38053;53.100;6.078;2022-11-24T04:05:40;6.60;99.90
52044;DHT22;38053;53.100;6.078;2022-11-24T04:08:06;6.60;99.90
52044;DHT22;38053;53.100;6.078;2022-11-24T04:10:34;6.60;99.90
52044;DHT22;38053;53.100;6.078;2022-11-24T04:13:01;6.60;99.90
52044;DHT22;38053;53.100;6.078;2022-11-24T04:15:27;6.60;99.90
52044;DHT22;38053;53.100;6.078;2022-11-24T04:17:54;6.50;99.90
52044;DHT22;38053;53.100;6.078;2022-11-24T04:20:20;6.50;99.90
52044;DHT22;38053;53.100;6.078;2022-11-24T04:22:46;6.60;99.90
52044;DHT22;38053;53.100;6.078;2022-11-24T04:25:13;6.50;99.90
52044;DHT22;38053;53.100;6.078;2022-11-24T04:27:42;6.50;99.90
52044;DHT22;38053;53.100;6.078;2022-11-24T04:30:08;6.40;99.90
52044;DHT22;38053;53.100;6.078;2022-11-24T04:32:35;6.40;99.90
52044;DHT22;38053;53.100;6.078;2022-11-24T04:35:02;6.40;99.90
52044;DHT22;38053;53.100;6.078;2022-11-24T04:37:28;6.40;99.90
52044;DHT22;38053;53.100;6.078;2022-11-24T04:39:53;6.40;99.90
52044;DHT22;38053;53.100;6.078;2022-11-24T04:42:20;6.40;99.90
52044;DHT22;38053;53.100;6.078;2022-11-24T04:44:46;6.30;99.90
52044;DHT22;38053;53.100;6.078;2022-11-24T04:47:18;6.30;99.90
52044;DHT22;38053;53.100;6.078;2022-11-24T04:49:46;6.30;99.90
52044;DHT22;38053;53.100;6.078;2022-11-24T04:52:16;6.30;99.90
52044;DHT22;38053;53.100;6.078;2022-11-24T04:54:42;6.30;99.90
52044;DHT22;38053;53.100;6.078;2022-11-24T04:57:15;6.30;99.90
52044;DHT22;38053;53.100;6.078;2022-11-24T04:59:41;6.30;99.90
52044;DHT22;38053;53.100;6.078;2022-11-24T05:02:07;6.30;99.90
52044;DHT22;38053;53.100;6.078;2022-11-24T05:04:33;6.20;99.90
52044;DHT22;38053;53.100;6.078;2022-11-24T05:06:59;6.20;99.90
52044;DHT22;38053;53.100;6.078;2022-11-24T05:09:25;6.20;99.90
52044;DHT22;38053;53.100;6.078;2022-11-24T05:11:50;6.20;99.90
52044;DHT22;38053;53.100;6.078;2022-11-24T05:14:16;6.20;99.90
52044;DHT22;38053;53.100;6.078;2022-11-24T05:16:42;6.20;99.90
52044;DHT22;38053;53.100;6.078;2022-11-24T05:19:07;6.20;99.90
52044;DHT22;38053;53.100;6.078;2022-11-24T05:21:33;6.20;99.90
52044;DHT22;38053;53.100;6.078;2022-11-24T05:23:59;6.20;99.90
52044;DHT22;38053;53.100;6.078;2022-11-24T05:26:26;6.20;99.90
52044;DHT22;38053;53.100;6.078;2022-11-24T05:28:52;6.10;99.90
52044;DHT22;38053;53.100;6.078;2022-11-24T05:31:18;6.10;99.90
52044;DHT22;38053;53.100;6.078;2022-11-24T05:33:44;6.10;99.90
52044;DHT22;38053;53.100;6.078;2022-11-24T05:36:10;6.10;99.90
52044;DHT22;38053;53.100;6.078;2022-11-24T05:38:59;6.10;99.90
52044;DHT22;38053;53.100;6.078;2022-11-24T05:41:25;6.10;99.90
52044;DHT22;38053;53.100;6.078;2022-11-24T05:43:51;6.10;99.90
52044;DHT22;38053;53.100;6.078;2022-11-24T05:46:17;6.10;99.90
52044;DHT22;38053;53.100;6.078;2022-11-24T05:48:42;6.20;99.90
52044;DHT22;38053;53.100;6.078;2022-11-24T05:51:08;6.20;99.90
52044;DHT22;38053;53.100;6.078;2022-11-24T05:53:34;6.20;99.90
52044;DHT22;38053;53.100;6.078;2022-11-24T05:56:03;6.20;99.90
52044;DHT22;38053;53.100;6.078;2022-11-24T05:58:29;6.20;99.90
52044;DHT22;38053;53.100;6.078;2022-11-24T06:00:54;6.20;99.90
52044;DHT22;38053;53.100;6.078;2022-11-24T06:03:20;6.20;99.90
52044;DHT22;38053;53.100;6.078;2022-11-24T06:05:46;6.20;99.90
52044;DHT22;38053;53.100;6.078;2022-11-24T06:08:12;6.20;99.90
52044;DHT22;38053;53.100;6.078;2022-11-24T06:10:38;6.20;99.90
52044;DHT22;38053;53.100;6.078;2022-11-24T06:13:05;6.30;99.90
52044;DHT22;38053;53.100;6.078;2022-11-24T06:15:32;6.20;99.90
52044;DHT22;38053;53.100;6.078;2022-11-24T06:18:02;6.20;99.90
52044;DHT22;38053;53.100;6.078;2022-11-24T06:20:28;6.20;99.90
52044;DHT22;38053;53.100;6.078;2022-11-24T06:22:56;6.20;99.90
52044;DHT22;38053;53.100;6.078;2022-11-24T06:25:22;6.20;99.90
52044;DHT22;38053;53.100;6.078;2022-11-24T06:27:48;6.20;99.90
52044;DHT22;38053;53.100;6.078;2022-11-24T06:30:14;6.20;99.90
52044;DHT22;38053;53.100;6.078;2022-11-24T06:32:39;6.20;99.90
52044;DHT22;38053;53.100;6.078;2022-11-24T06:35:10;6.20;99.90
52044;DHT22;38053;53.100;6.078;2022-11-24T06:37:36;6.30;99.90
52044;DHT22;38053;53.100;6.078;2022-11-24T06:40:03;6.30;99.90
52044;DHT22;38053;53.100;6.078;2022-11-24T06:42:29;6.30;99.90
52044;DHT22;38053;53.100;6.078;2022-11-24T06:44:54;6.40;99.90
52044;DHT22;38053;53.100;6.078;2022-11-24T06:47:20;6.40;99.90
52044;DHT22;38053;53.100;6.078;2022-11-24T06:49:46;6.50;99.90
52044;DHT22;38053;53.100;6.078;2022-11-24T06:52:11;6.50;99.90
52044;DHT22;38053;53.100;6.078;2022-11-24T06:54:37;6.50;99.90
52044;DHT22;38053;53.100;6.078;2022-11-24T06:57:03;6.40;99.90
52044;DHT22;38053;53.100;6.078;2022-11-24T06:59:28;6.40;99.90
52044;DHT22;38053;53.100;6.078;2022-11-24T07:01:54;6.30;99.90
52044;DHT22;38053;53.100;6.078;2022-11-24T07:04:20;6.30;99.90
52044;DHT22;38053;53.100;6.078;2022-11-24T07:06:48;6.30;99.90
52044;DHT22;38053;53.100;6.078;2022-11-24T07:09:14;6.20;99.90
52044;DHT22;38053;53.100;6.078;2022-11-24T07:11:40;6.20;99.90
52044;DHT22;38053;53.100;6.078;2022-11-24T07:14:06;6.20;99.90
52044;DHT22;38053;53.100;6.078;2022-11-24T07:16:32;6.20;99.90
52044;DHT22;38053;53.100;6.078;2022-11-24T07:18:58;6.20;99.90
52044;DHT22;38053;53.100;6.078;2022-11-24T07:21:25;6.20;99.90
52044;DHT22;38053;53.100;6.078;2022-11-24T07:23:52;6.20;99.90
52044;DHT22;38053;53.100;6.078;2022-11-24T07:26:18;6.20;99.90
52044;DHT22;38053;53.100;6.078;2022-11-24T07:28:45;6.20;99.90
52044;DHT22;38053;53.100;6.078;2022-11-24T07:31:15;6.30;99.90
52044;DHT22;38053;53.100;6.078;2022-11-24T07:33:46;6.30;99.90
52044;DHT22;38053;53.100;6.078;2022-11-24T07:36:12;6.30;99.90
52044;DHT22;38053;53.100;6.078;2022-11-24T07:38:37;6.30;99.90
52044;DHT22;38053;53.100;6.078;2022-11-24T07:41:07;6.30;99.90
52044;DHT22;38053;53.100;6.078;2022-11-24T07:43:35;6.30;99.90
52044;DHT22;38053;53.100;6.078;2022-11-24T07:46:02;6.40;99.90
52044;DHT22;38053;53.100;6.078;2022-11-24T07:48:30;6.30;99.90
52044;DHT22;38053;53.100;6.078;2022-11-24T07:51:00;6.40;99.90
52044;DHT22;38053;53.100;6.078;2022-11-24T07:53:26;6.40;99.90
52044;DHT22;38053;53.100;6.078;2022-11-24T07:56:04;6.40;99.90
52044;DHT22;38053;53.100;6.078;2022-11-24T07:58:33;6.30;99.90
52044;DHT22;38053;53.100;6.078;2022-11-24T08:00:59;6.30;99.90
52044;DHT22;38053;53.100;6.078;2022-11-24T08:03:25;6.30;99.90
52044;DHT22;38053;53.100;6.078;2022-11-24T08:08:20;6.30;99.90
52044;DHT22;38053;53.100;6.078;2022-11-24T08:10:46;6.30;99.90
52044;DHT22;38053;53.100;6.078;2022-11-24T08:13:11;6.30;99.90
52044;DHT22;38053;53.100;6.078;2022-11-24T08:15:37;6.40;99.90
52044;DHT22;38053;53.100;6.078;2022-11-24T08:18:03;6.40;99.90
52044;DHT22;38053;53.100;6.078;2022-11-24T08:20:29;6.40;99.90
52044;DHT22;38053;53.100;6.078;2022-11-24T08:22:58;6.40;99.90
52044;DHT22;38053;53.100;6.078;2022-11-24T08:25:25;6.40;99.90
52044;DHT22;38053;53.100;6.078;2022-11-24T08:28:00;6.40;99.90
52044;DHT22;38053;53.100;6.078;2022-11-24T08:30:26;6.40;99.90
52044;DHT22;38053;53.100;6.078;2022-11-24T08:32:52;6.40;99.90
52044;DHT22;38053;53.100;6.078;2022-11-24T08:35:18;6.50;99.90
52044;DHT22;38053;53.100;6.078;2022-11-24T08:37:44;6.50;99.90
52044;DHT22;38053;53.100;6.078;2022-11-24T08:40:10;6.60;99.90
52044;DHT22;38053;53.100;6.078;2022-11-24T08:42:36;6.80;99.90
52044;DHT22;38053;53.100;6.078;2022-11-24T08:45:02;6.90;99.90
52044;DHT22;38053;53.100;6.078;2022-11-24T08:47:28;7.00;99.90
52044;DHT22;38053;53.100;6.078;2022-11-24T08:49:53;7.10;99.90
52044;DHT22;38053;53.100;6.078;2022-11-24T08:52:19;7.20;99.90
52044;DHT22;38053;53.100;6.078;2022-11-24T08:54:45;7.20;99.90
52044;DHT22;38053;53.100;6.078;2022-11-24T08:57:12;7.10;99.90
52044;DHT22;38053;53.100;6.078;2022-11-24T08:59:38;7.20;99.90
52044;DHT22;38053;53.100;6.078;2022-11-24T09:02:04;7.10;99.90
52044;DHT22;38053;53.100;6.078;2022-11-24T09:04:30;7.10;99.90
52044;DHT22;38053;53.100;6.078;2022-11-24T09:06:57;7.10;99.90
52044;DHT22;38053;53.100;6.078;2022-11-24T09:09:23;7.20;99.90
52044;DHT22;38053;53.100;6.078;2022-11-24T09:11:48;7.30;99.90
52044;DHT22;38053;53.100;6.078;2022-11-24T09:14:14;7.30;99.90
52044;DHT22;38053;53.100;6.078;2022-11-24T09:16:40;7.30;99.90
52044;DHT22;38053;53.100;6.078;2022-11-24T09:19:06;7.40;99.90
52044;DHT22;38053;53.100;6.078;2022-11-24T09:21:34;7.40;99.90
52044;DHT22;38053;53.100;6.078;2022-11-24T09:24:08;7.40;99.90
52044;DHT22;38053;53.100;6.078;2022-11-24T09:26:35;7.40;99.90
52044;DHT22;38053;53.100;6.078;2022-11-24T09:29:03;7.40;99.90
52044;DHT22;38053;53.100;6.078;2022-11-24T09:31:31;7.40;99.90
52044;DHT22;38053;53.100;6.078;2022-11-24T09:33:59;7.50;99.90
52044;DHT22;38053;53.100;6.078;2022-11-24T09:36:25;7.50;99.90
52044;DHT22;38053;53.100;6.078;2022-11-24T09:38:51;7.50;99.90
52044;DHT22;38053;53.100;6.078;2022-11-24T09:49:04;7.70;99.90
52044;DHT22;38053;53.100;6.078;2022-11-24T09:51:33;7.70;99.90
52044;DHT22;38053;53.100;6.078;2022-11-24T09:54:08;7.80;99.90
52044;DHT22;38053;53.100;6.078;2022-11-24T09:56:37;7.80;99.90
52044;DHT22;38053;53.100;6.078;2022-11-24T09:59:24;7.90;99.90
52044;DHT22;38053;53.100;6.078;2022-11-24T10:01:52;7.90;99.90
52044;DHT22;38053;53.100;6.078;2022-11-24T10:04:24;8.00;99.90
52044;DHT22;38053;53.100;6.078;2022-11-24T10:26:27;8.40;99.90
52044;DHT22;38053;53.100;6.078;2022-11-24T10:28:56;8.50;99.90
52044;DHT22;38053;53.100;6.078;2022-11-24T10:31:42;8.60;99.90
52044;DHT22;38053;53.100;6.078;2022-11-24T10:34:16;8.70;99.90
52044;DHT22;38053;53.100;6.078;2022-11-24T10:42:25;8.90;99.90
52044;DHT22;38053;53.100;6.078;2022-11-24T10:47:33;9.00;99.90
52044;DHT22;38053;53.100;6.078;2022-11-24T10:50:07;9.00;99.90
52044;DHT22;38053;53.100;6.078;2022-11-24T10:52:46;9.00;99.90
52044;DHT22;38053;53.100;6.078;2022-11-24T10:55:15;9.00;99.90
52044;DHT22;38053;53.100;6.078;2022-11-24T10:57:41;9.10;99.90
52044;DHT22;38053;53.100;6.078;2022-11-24T11:02:47;9.10;99.90
52044;DHT22;38053;53.100;6.078;2022-11-24T11:08:16;9.40;99.90
52044;DHT22;38053;53.100;6.078;2022-11-24T11:10:45;9.40;99.90
52044;DHT22;38053;53.100;6.078;2022-11-24T11:13:29;9.60;99.90
52044;DHT22;38053;53.100;6.078;2022-11-24T11:15:57;9.70;99.90
52044;DHT22;38053;53.100;6.078;2022-11-24T11:18:30;9.80;99.90
52044;DHT22;38053;53.100;6.078;2022-11-24T11:20:59;10.00;99.90
52044;DHT22;38053;53.100;6.078;2022-11-24T11:23:31;10.20;99.90
52044;DHT22;38053;53.100;6.078;2022-11-24T11:29:04;10.30;99.90
52044;DHT22;38053;53.100;6.078;2022-11-24T11:31:38;10.30;99.90
52044;DHT22;38053;53.100;6.078;2022-11-24T11:34:14;10.30;99.90
52044;DHT22;38053;53.100;6.078;2022-11-24T11:36:45;10.50;99.90
52044;DHT22;38053;53.100;6.078;2022-11-24T11:39:21;10.60;99.90
52044;DHT22;38053;53.100;6.078;2022-11-24T11:41:51;10.70;99.90
52044;DHT22;38053;53.100;6.078;2022-11-24T11:44:26;10.90;99.90
52044;DHT22;38053;53.100;6.078;2022-11-24T11:46:54;11.00;99.90
52044;DHT22;38053;53.100;6.078;2022-11-24T11:49:36;11.00;99.90
52044;DHT22;38053;53.100;6.078;2022-11-24T11:52:22;10.90;99.90
52044;DHT22;38053;53.100;6.078;2022-11-24T11:55:23;10.80;99.90
52044;DHT22;38053;53.100;6.078;2022-11-24T12:00:30;10.80;99.90
52044;DHT22;38053;53.100;6.078;2022-11-24T12:03:24;10.90;99.90
52044;DHT22;38053;53.100;6.078;2022-11-24T12:08:56;11.00;99.90
52044;DHT22;38053;53.100;6.078;2022-11-24T12:11:50;11.00;99.90
52044;DHT22;38053;53.100;6.078;2022-11-24T12:14:40;11.20;99.90
52044;DHT22;38053;53.100;6.078;2022-11-24T12:17:25;11.30;99.90
52044;DHT22;38053;53.100;6.078;2022-11-24T12:25:38;11.60;99.90
52044;DHT22;38053;53.100;6.078;2022-11-24T12:28:17;11.50;99.90
52044;DHT22;38053;53.100;6.078;2022-11-24T12:31:02;11.60;99.90
52044;DHT22;38053;53.100;6.078;2022-11-24T12:39:24;11.70;99.90
52044;DHT22;38053;53.100;6.078;2022-11-24T12:42:13;11.80;99.90
52044;DHT22;38053;53.100;6.078;2022-11-24T12:47:22;11.70;99.90
52044;DHT22;38053;53.100;6.078;2022-11-24T12:52:34;11.60;99.90
52044;DHT22;38053;53.100;6.078;2022-11-24T12:55:13;11.50;99.90
52044;DHT22;38053;53.100;6.078;2022-11-24T12:58:31;11.30;99.90
52044;DHT22;38053;53.100;6.078;2022-11-24T13:00:58;11.10;99.90
52044;DHT22;38053;53.100;6.078;2022-11-24T13:09:10;11.20;99.90
52044;DHT22;38053;53.100;6.078;2022-11-24T13:19:36;11.10;99.90
52044;DHT22;38053;53.100;6.078;2022-11-24T13:22:13;11.20;99.90
52044;DHT22;38053;53.100;6.078;2022-11-24T13:24:41;11.20;99.90
52044;DHT22;38053;53.100;6.078;2022-11-24T13:29:52;11.10;99.90
52044;DHT22;38053;53.100;6.078;2022-11-24T13:39:59;10.90;99.90
52044;DHT22;38053;53.100;6.078;2022-11-24T13:42:28;10.90;99.90
52044;DHT22;38053;53.100;6.078;2022-11-24T13:44:56;10.80;99.90
52044;DHT22;38053;53.100;6.078;2022-11-24T13:47:31;10.70;99.90
52044;DHT22;38053;53.100;6.078;2022-11-24T13:49:58;10.60;99.90
52044;DHT22;38053;53.100;6.078;2022-11-24T13:52:38;10.60;99.90
52044;DHT22;38053;53.100;6.078;2022-11-24T13:57:41;10.50;99.90
52044;DHT22;38053;53.100;6.078;2022-11-24T14:00:28;10.60;99.90
52044;DHT22;38053;53.100;6.078;2022-11-24T14:03:25;10.80;99.90
52044;DHT22;38053;53.100;6.078;2022-11-24T14:05:52;10.80;99.90
52044;DHT22;38053;53.100;6.078;2022-11-24T14:08:25;10.70;99.90
52044;DHT22;38053;53.100;6.078;2022-11-24T14:10:57;10.60;99.90
52044;DHT22;38053;53.100;6.078;2022-11-24T14:13:25;10.40;99.90
52044;DHT22;38053;53.100;6.078;2022-11-24T14:16:04;10.30;99.90
52044;DHT22;38053;53.100;6.078;2022-11-24T14:18:30;10.30;99.90
52044;DHT22;38053;53.100;6.078;2022-11-24T14:21:34;10.20;99.90
52044;DHT22;38053;53.100;6.078;2022-11-24T14:26:38;10.10;99.90
52044;DHT22;38053;53.100;6.078;2022-11-24T14:29:11;10.00;99.90
52044;DHT22;38053;53.100;6.078;2022-11-24T14:31:38;9.90;99.90
52044;DHT22;38053;53.100;6.078;2022-11-24T14:34:24;9.80;99.90
52044;DHT22;38053;53.100;6.078;2022-11-24T14:36:51;9.80;99.90
52044;DHT22;38053;53.100;6.078;2022-11-24T14:39:20;9.80;99.90
52044;DHT22;38053;53.100;6.078;2022-11-24T14:42:05;9.70;99.90
52044;DHT22;38053;53.100;6.078;2022-11-24T14:44:49;9.70;99.90
52044;DHT22;38053;53.100;6.078;2022-11-24T14:47:26;9.70;99.90
52044;DHT22;38053;53.100;6.078;2022-11-24T14:49:53;9.60;99.90
52044;DHT22;38053;53.100;6.078;2022-11-24T14:52:21;9.50;99.90
52044;DHT22;38053;53.100;6.078;2022-11-24T14:54:55;9.40;99.90
52044;DHT22;38053;53.100;6.078;2022-11-24T15:00:26;9.30;99.90
52044;DHT22;38053;53.100;6.078;2022-11-24T15:02:55;9.30;99.90
52044;DHT22;38053;53.100;6.078;2022-11-24T15:06:01;9.20;99.90
52044;DHT22;38053;53.100;6.078;2022-11-24T15:08:37;9.10;99.90
52044;DHT22;38053;53.100;6.078;2022-11-24T15:11:07;9.00;99.90
52044;DHT22;38053;53.100;6.078;2022-11-24T15:13:36;9.00;99.90
52044;DHT22;38053;53.100;6.078;2022-11-24T15:16:12;8.90;99.90
52044;DHT22;38053;53.100;6.078;2022-11-24T15:21:05;8.80;99.90
52044;DHT22;38053;53.100;6.078;2022-11-24T15:23:32;8.80;99.90
52044;DHT22;38053;53.100;6.078;2022-11-24T15:28:28;8.70;99.90
52044;DHT22;38053;53.100;6.078;2022-11-24T15:31:01;8.60;99.90
52044;DHT22;38053;53.100;6.078;2022-11-24T15:33:27;8.50;99.90
52044;DHT22;38053;53.100;6.078;2022-11-24T15:35:54;8.50;99.90
52044;DHT22;38053;53.100;6.078;2022-11-24T15:38:20;8.40;99.90
52044;DHT22;38053;53.100;6.078;2022-11-24T15:40:48;8.40;99.90
52044;DHT22;38053;53.100;6.078;2022-11-24T15:43:30;8.30;99.90
52044;DHT22;38053;53.100;6.078;2022-11-24T15:45:58;8.30;99.90
52044;DHT22;38053;53.100;6.078;2022-11-24T15:48:24;8.20;99.90
52044;DHT22;38053;53.100;6.078;2022-11-24T15:50:51;8.20;99.90
52044;DHT22;38053;53.100;6.078;2022-11-24T15:53:42;8.20;99.90
52044;DHT22;38053;53.100;6.078;2022-11-24T15:56:16;8.10;99.90
52044;DHT22;38053;53.100;6.078;2022-11-24T15:58:43;8.00;99.90
52044;DHT22;38053;53.100;6.078;2022-11-24T16:01:09;8.00;99.90
52044;DHT22;38053;53.100;6.078;2022-11-24T16:03:34;8.00;99.90
52044;DHT22;38053;53.100;6.078;2022-11-24T16:06:00;7.90;99.90
52044;DHT22;38053;53.100;6.078;2022-11-24T16:08:26;7.90;99.90
52044;DHT22;38053;53.100;6.078;2022-11-24T16:10:51;7.80;99.90
52044;DHT22;38053;53.100;6.078;2022-11-24T16:13:17;7.80;99.90
52044;DHT22;38053;53.100;6.078;2022-11-24T16:15:44;7.70;99.90
52044;DHT22;38053;53.100;6.078;2022-11-24T16:18:10;7.70;99.90
52044;DHT22;38053;53.100;6.078;2022-11-24T16:20:35;7.60;99.90
52044;DHT22;38053;53.100;6.078;2022-11-24T16:23:04;7.60;99.90
52044;DHT22;38053;53.100;6.078;2022-11-24T16:25:31;7.60;99.90
52044;DHT22;38053;53.100;6.078;2022-11-24T16:27:57;7.60;99.90
52044;DHT22;38053;53.100;6.078;2022-11-24T16:30:22;7.60;99.90
52044;DHT22;38053;53.100;6.078;2022-11-24T16:32:48;7.60;99.90
52044;DHT22;38053;53.100;6.078;2022-11-24T16:35:14;7.60;99.90
52044;DHT22;38053;53.100;6.078;2022-11-24T16:37:40;7.60;99.90
52044;DHT22;38053;53.100;6.078;2022-11-24T16:40:06;7.60;99.90
52044;DHT22;38053;53.100;6.078;2022-11-24T16:42:32;7.50;99.90
52044;DHT22;38053;53.100;6.078;2022-11-24T16:44:57;7.50;99.90
52044;DHT22;38053;53.100;6.078;2022-11-24T16:47:23;7.50;99.90
52044;DHT22;38053;53.100;6.078;2022-11-24T16:49:49;7.50;99.90
52044;DHT22;38053;53.100;6.078;2022-11-24T16:52:15;7.40;99.90
52044;DHT22;38053;53.100;6.078;2022-11-24T16:54:41;7.40;99.90
52044;DHT22;38053;53.100;6.078;2022-11-24T16:57:07;7.40;99.90
52044;DHT22;38053;53.100;6.078;2022-11-24T16:59:33;7.40;99.90
52044;DHT22;38053;53.100;6.078;2022-11-24T17:01:59;7.40;99.90
52044;DHT22;38053;53.100;6.078;2022-11-24T17:04:24;7.30;99.90
52044;DHT22;38053;53.100;6.078;2022-11-24T17:06:50;7.30;99.90
52044;DHT22;38053;53.100;6.078;2022-11-24T17:09:16;7.30;99.90
52044;DHT22;38053;53.100;6.078;2022-11-24T17:11:43;7.20;99.90
52044;DHT22;38053;53.100;6.078;2022-11-24T17:14:10;7.20;99.90
52044;DHT22;38053;53.100;6.078;2022-11-24T17:16:37;7.20;99.90
52044;DHT22;38053;53.100;6.078;2022-11-24T17:19:03;7.20;99.90
52044;DHT22;38053;53.100;6.078;2022-11-24T17:21:30;7.10;99.90
52044;DHT22;38053;53.100;6.078;2022-11-24T17:23:58;7.10;99.90
52044;DHT22;38053;53.100;6.078;2022-11-24T17:26:24;7.10;99.90
52044;DHT22;38053;53.100;6.078;2022-11-24T17:28:51;7.10;99.90
52044;DHT22;38053;53.100;6.078;2022-11-24T17:31:28;7.00;99.90
52044;DHT22;38053;53.100;6.078;2022-11-24T17:33:57;7.00;99.90
52044;DHT22;38053;53.100;6.078;2022-11-24T17:36:24;7.00;99.90
52044;DHT22;38053;53.100;6.078;2022-11-24T17:38:50;6.90;99.90
52044;DHT22;38053;53.100;6.078;2022-11-24T17:41:17;7.00;99.90
52044;DHT22;38053;53.100;6.078;2022-11-24T17:43:42;7.00;99.90
52044;DHT22;38053;53.100;6.078;2022-11-24T17:46:09;7.00;99.90
52044;DHT22;38053;53.100;6.078;2022-11-24T17:48:35;7.00;99.90